sensor_id;sensor_type;location;lat;lon;timestamp;temperature;humidity
24158;DHT22;12316;50.904;4.200;2024-01-15T00:01:46;3.70;99.90
24158;DHT22;12316;50.904;4.200;2024-01-15T00:04:11;3.60;99.90
24158;DHT22;12316;50.904;4.200;2024-01-15T00:06:37;3.60;99.90
24158;DHT22;12316;50.904;4.200;2024-01-15T00:09:03;3.60;99.90
24158;DHT22;12316;50.904;4.200;2024-01-15T00:11:28;3.60;99.90
24158;DHT22;12316;50.904;4.200;2024-01-15T00:13:54;3.60;99.90
24158;DHT22;12316;50.904;4.200;2024-01-15T00:16:20;3.60;99.90
24158;DHT22;12316;50.904;4.200;2024-01-15T00:18:45;3.60;99.90
24158;DHT22;12316;50.904;4.200;2024-01-15T00:21:11;3.80;99.90
24158;DHT22;12316;50.904;4.200;2024-01-15T00:23:36;3.70;99.90
24158;DHT22;12316;50.904;4.200;2024-01-15T00:26:02;3.80;99.90
24158;DHT22;12316;50.904;4.200;2024-01-15T00:28:28;3.80;99.90
24158;DHT22;12316;50.904;4.200;2024-01-15T00:30:53;3.80;99.90
24158;DHT22;12316;50.904;4.200;2024-01-15T00:33:19;3.80;99.90
24158;DHT22;12316;50.904;4.200;2024-01-15T00:35:44;3.90;99.90
24158;DHT22;12316;50.904;4.200;2024-01-15T00:38:10;3.90;99.90
24158;DHT22;12316;50.904;4.200;2024-01-15T00:40:36;3.90;99.90
24158;DHT22;12316;50.904;4.200;2024-01-15T00:43:01;4.10;99.90
24158;DHT22;12316;50.904;4.200;2024-01-15T00:45:28;4.20;99.90
24158;DHT22;12316;50.904;4.200;2024-01-15T00:47:53;4.20;99.90
24158;DHT22;12316;50.904;4.200;2024-01-15T00:50:21;4.20;99.90
24158;DHT22;12316;50.904;4.200;2024-01-15T00:52:47;4.30;99.90
24158;DHT22;12316;50.904;4.200;2024-01-15T00:55:13;4.10;99.90
24158;DHT22;12316;50.904;4.200;2024-01-15T00:57:39;4.20;99.90
24158;DHT22;12316;50.904;4.200;2024-01-15T01:00:05;4.10;99.90
24158;DHT22;12316;50.904;4.200;2024-01-15T01:02:31;4.20;99.90
24158;DHT22;12316;50.904;4.200;2024-01-15T01:04:57;4.40;99.90
24158;DHT22;12316;50.904;4.200;2024-01-15T01:07:23;4.40;99.90
24158;DHT22;12316;50.904;4.200;2024-01-15T01:09:48;4.40;99.90
24158;DHT22;12316;50.904;4.200;2024-01-15T01:12:14;4.30;99.90
24158;DHT22;12316;50.904;4.200;2024-01-15T01:14:40;4.30;99.90
24158;DHT22;12316;50.904;4.200;2024-01-15T01:17:06;4.40;99.90
24158;DHT22;12316;50.904;4.200;2024-01-15T01:19:31;4.30;99.90
24158;DHT22;12316;50.904;4.200;2024-01-15T01:21:57;4.30;99.90
24158;DHT22;12316;50.904;4.200;2024-01-15T01:24:22;4.40;99.90
24158;DHT22;12316;50.904;4.200;2024-01-15T01:26:48;4.30;99.90
24158;DHT22;12316;50.904;4.200;2024-01-15T01:29:14;4.40;99.90
24158;DHT22;12316;50.904;4.200;2024-01-15T01:31:46;4.30;99.90
24158;DHT22;12316;50.904;4.200;2024-01-15T01:34:16;4.30;99.90
24158;DHT22;12316;50.904;4.200;2024-01-15T01:36:42;4.40;99.90
24158;DHT22;12316;50.904;4.200;2024-01-15T01:39:08;4.40;99.90
24158;DHT22;12316;50.904;4.200;2024-01-15T01:41:34;4.40;99.90
24158;DHT22;12316;50.904;4.200;2024-01-15T01:44:00;4.50;99.90
24158;DHT22;12316;50.904;4.200;2024-01-15T01:46:27;4.40;99.90
24158;DHT22;12316;50.904;4.200;2024-01-15T01:48:54;4.40;99.90
24158;DHT22;12316;50.904;4.200;2024-01-15T01:51:21;4.40;99.90
24158;DHT22;12316;50.904;4.200;2024-01-15T01:53:47;4.50;99.90
24158;DHT22;12316;50.904;4.200;2024-01-15T01:56:14;4.40;99.90
24158;DHT22;12316;50.904;4.200;2024-01-15T01:58:40;4.40;99.90
24158;DHT22;12316;50.904;4.200;2024-01-15T02:01:06;4.30;99.90
24158;DHT22;12316;50.904;4.200;2024-01-15T02:03:32;4.20;99.90
24158;DHT22;12316;50.904;4.200;2024-01-15T02:05:59;4.20;99.90
24158;DHT22;12316;50.904;4.200;2024-01-15T02:08:26;4.20;99.90
24158;DHT22;12316;50.904;4.200;2024-01-15T02:10:52;4.20;99.90
24158;DHT22;12316;50.904;4.200;2024-01-15T02:13:18;4.10;99.90
24158;DHT22;12316;50.904;4.200;2024-01-15T02:15:44;4.20;99.90
24158;DHT22;12316;50.904;4.200;2024-01-15T02:18:10;4.30;99.90
24158;DHT22;12316;50.904;4.200;2024-01-15T02:20:35;4.10;99.90
24158;DHT22;12316;50.904;4.200;2024-01-15T02:23:13;4.20;99.90
24158;DHT22;12316;50.904;4.200;2024-01-15T02:25:41;4.30;99.90
24158;DHT22;12316;50.904;4.200;2024-01-15T02:28:09;4.30;99.90
24158;DHT22;12316;50.904;4.200;2024-01-15T02:30:39;4.20;99.90
24158;DHT22;12316;50.904;4.200;2024-01-15T02:33:06;4.10;99.90
24158;DHT22;12316;50.904;4.200;2024-01-15T02:35:32;4.30;99.90
24158;DHT22;12316;50.904;4.200;2024-01-15T02:37:58;4.30;99.90
24158;DHT22;12316;50.904;4.200;2024-01-15T02:40:24;4.30;99.90
24158;DHT22;12316;50.904;4.200;2024-01-15T02:42:50;4.30;99.90
24158;DHT22;12316;50.904;4.200;2024-01-15T02:45:17;4.30;99.90
24158;DHT22;12316;50.904;4.200;2024-01-15T02:47:42;4.10;99.90
24158;DHT22;12316;50.904;4.200;2024-01-15T02:50:08;4.10;99.90
24158;DHT22;12316;50.904;4.200;2024-01-15T02:52:34;4.20;99.90
24158;DHT22;12316;50.904;4.200;2024-01-15T02:55:00;4.20;99.90
24158;DHT22;12316;50.904;4.200;2024-01-15T02:57:25;4.30;99.90
24158;DHT22;12316;50.904;4.200;2024-01-15T02:59:51;4.20;99.90
24158;DHT22;12316;50.904;4.200;2024-01-15T03:02:17;4.40;99.90
24158;DHT22;12316;50.904;4.200;2024-01-15T03:04:45;4.40;99.90
24158;DHT22;12316;50.904;4.200;2024-01-15T03:07:11;4.50;99.90
24158;DHT22;12316;50.904;4.200;2024-01-15T03:09:36;4.50;99.90
24158;DHT22;12316;50.904;4.200;2024-01-15T03:12:02;4.40;99.90
24158;DHT22;12316;50.904;4.200;2024-01-15T03:14:28;4.40;99.90
24158;DHT22;12316;50.904;4.200;2024-01-15T03:16:55;4.40;99.90
24158;DHT22;12316;50.904;4.200;2024-01-15T03:19:20;4.50;99.90
24158;DHT22;12316;50.904;4.200;2024-01-15T03:21:46;4.50;99.90
24158;DHT22;12316;50.904;4.200;2024-01-15T03:24:11;4.60;99.90
24158;DHT22;12316;50.904;4.200;2024-01-15T03:26:37;4.60;99.90
24158;DHT22;12316;50.904;4.200;2024-01-15T03:29:03;4.50;99.90
24158;DHT22;12316;50.904;4.200;2024-01-15T03:31:28;4.50;99.90
24158;DHT22;12316;50.904;4.200;2024-01-15T03:33:54;4.30;99.90
24158;DHT22;12316;50.904;4.200;2024-01-15T03:36:20;4.20;99.90
24158;DHT22;12316;50.904;4.200;2024-01-15T03:38:45;4.10;99.90
24158;DHT22;12316;50.904;4.200;2024-01-15T03:41:11;4.10;99.90
24158;DHT22;12316;50.904;4.200;2024-01-15T03:43:37;4.10;99.90
24158;DHT22;12316;50.904;4.200;2024-01-15T03:46:02;4.10;99.90
24158;DHT22;12316;50.904;4.200;2024-01-15T03:48:28;4.10;99.90
24158;DHT22;12316;50.904;4.200;2024-01-15T03:50:54;4.20;99.90
24158;DHT22;12316;50.904;4.200;2024-01-15T03:53:19;4.20;99.90
24158;DHT22;12316;50.904;4.200;2024-01-15T03:55:46;4.10;99.90
24158;DHT22;12316;50.904;4.200;2024-01-15T03:58:11;4.10;99.90
24158;DHT22;12316;50.904;4.200;2024-01-15T04:00:37;4.20;99.90
24158;DHT22;12316;50.904;4.200;2024-01-15T04:03:03;4.10;99.90
24158;DHT22;12316;50.904;4.200;2024-01-15T04:05:28;4.00;99.90
24158;DHT22;12316;50.904;4.200;2024-01-15T04:07:54;4.20;99.90
24158;DHT22;12316;50.904;4.200;2024-01-15T04:10:20;4.20;99.90
24158;DHT22;12316;50.904;4.200;2024-01-15T04:12:46;4.10;99.90
24158;DHT22;12316;50.904;4.200;2024-01-15T04:15:12;4.10;99.90
24158;DHT22;12316;50.904;4.200;2024-01-15T04:17:38;4.00;99.90
24158;DHT22;12316;50.904;4.200;2024-01-15T04:20:04;4.10;99.90
24158;DHT22;12316;50.904;4.200;2024-01-15T04:22:30;4.00;99.90
24158;DHT22;12316;50.904;4.200;2024-01-15T04:24:56;4.00;99.90
24158;DHT22;12316;50.904;4.200;2024-01-15T04:27:21;3.90;99.90
24158;DHT22;12316;50.904;4.200;2024-01-15T04:29:47;3.80;99.90
24158;DHT22;12316;50.904;4.200;2024-01-15T04:32:12;3.90;99.90
24158;DHT22;12316;50.904;4.200;2024-01-15T04:34:38;3.90;99.90
24158;DHT22;12316;50.904;4.200;2024-01-15T04:37:04;4.10;99.90
24158;DHT22;12316;50.904;4.200;2024-01-15T04:39:29;4.10;99.90
24158;DHT22;12316;50.904;4.200;2024-01-15T04:41:55;4.10;99.90
24158;DHT22;12316;50.904;4.200;2024-01-15T04:44:20;4.20;99.90
24158;DHT22;12316;50.904;4.200;2024-01-15T04:46:46;4.20;99.90
24158;DHT22;12316;50.904;4.200;2024-01-15T04:49:12;4.30;99.90
24158;DHT22;12316;50.904;4.200;2024-01-15T04:51:37;4.10;99.90
24158;DHT22;12316;50.904;4.200;2024-01-15T04:54:03;4.00;99.90
24158;DHT22;12316;50.904;4.200;2024-01-15T04:56:29;3.90;99.90
24158;DHT22;12316;50.904;4.200;2024-01-15T04:58:55;3.90;99.90
24158;DHT22;12316;50.904;4.200;2024-01-15T05:01:20;3.90;99.90
24158;DHT22;12316;50.904;4.200;2024-01-15T05:03:46;3.80;99.90
24158;DHT22;12316;50.904;4.200;2024-01-15T05:06:12;3.80;99.90
24158;DHT22;12316;50.904;4.200;2024-01-15T05:08:37;3.90;99.90
24158;DHT22;12316;50.904;4.200;2024-01-15T05:11:03;3.90;99.90
24158;DHT22;12316;50.904;4.200;2024-01-15T05:13:29;3.80;99.90
24158;DHT22;12316;50.904;4.200;2024-01-15T05:15:54;3.80;99.90
24158;DHT22;12316;50.904;4.200;2024-01-15T05:18:20;3.90;99.90
24158;DHT22;12316;50.904;4.200;2024-01-15T05:20:46;3.70;99.90
24158;DHT22;12316;50.904;4.200;2024-01-15T05:23:11;3.50;99.90
24158;DHT22;12316;50.904;4.200;2024-01-15T05:25:37;3.60;99.90
24158;DHT22;12316;50.904;4.200;2024-01-15T05:28:04;3.70;99.90
24158;DHT22;12316;50.904;4.200;2024-01-15T05:30:30;3.60;99.90
24158;DHT22;12316;50.904;4.200;2024-01-15T05:32:56;3.70;99.90
24158;DHT22;12316;50.904;4.200;2024-01-15T05:35:22;3.70;99.90
24158;DHT22;12316;50.904;4.200;2024-01-15T05:37:48;3.60;99.90
24158;DHT22;12316;50.904;4.200;2024-01-15T05:40:14;3.60;99.90
24158;DHT22;12316;50.904;4.200;2024-01-15T05:42:41;3.50;99.90
24158;DHT22;12316;50.904;4.200;2024-01-15T05:45:07;3.40;99.90
24158;DHT22;12316;50.904;4.200;2024-01-15T05:47:33;3.30;99.90
24158;DHT22;12316;50.904;4.200;2024-01-15T05:50:00;3.30;99.90
24158;DHT22;12316;50.904;4.200;2024-01-15T05:52:25;3.30;99.90
24158;DHT22;12316;50.904;4.200;2024-01-15T05:54:51;3.20;99.90
24158;DHT22;12316;50.904;4.200;2024-01-15T05:57:17;3.20;99.90
24158;DHT22;12316;50.904;4.200;2024-01-15T05:59:44;3.10;99.90
24158;DHT22;12316;50.904;4.200;2024-01-15T06:02:09;3.00;99.90
24158;DHT22;12316;50.904;4.200;2024-01-15T06:04:35;3.00;99.90
24158;DHT22;12316;50.904;4.200;2024-01-15T06:07:00;3.10;99.90
24158;DHT22;12316;50.904;4.200;2024-01-15T06:09:26;3.00;99.90
24158;DHT22;12316;50.904;4.200;2024-01-15T06:11:53;3.00;99.90
24158;DHT22;12316;50.904;4.200;2024-01-15T06:14:18;2.90;99.90
24158;DHT22;12316;50.904;4.200;2024-01-15T06:16:44;2.90;99.90
24158;DHT22;12316;50.904;4.200;2024-01-15T06:19:09;2.90;99.90
24158;DHT22;12316;50.904;4.200;2024-01-15T06:21:35;2.80;99.90
24158;DHT22;12316;50.904;4.200;2024-01-15T06:24:01;2.80;99.90
24158;DHT22;12316;50.904;4.200;2024-01-15T06:26:26;2.80;99.90
24158;DHT22;12316;50.904;4.200;2024-01-15T06:28:52;2.60;99.90
24158;DHT22;12316;50.904;4.200;2024-01-15T06:31:19;2.60;99.90
24158;DHT22;12316;50.904;4.200;2024-01-15T06:33:44;2.70;99.90
24158;DHT22;12316;50.904;4.200;2024-01-15T06:36:12;2.70;99.90
24158;DHT22;12316;50.904;4.200;2024-01-15T06:38:38;2.70;99.90
24158;DHT22;12316;50.904;4.200;2024-01-15T06:41:04;2.70;99.90
24158;DHT22;12316;50.904;4.200;2024-01-15T06:43:29;2.70;99.90
24158;DHT22;12316;50.904;4.200;2024-01-15T06:45:55;2.80;99.90
24158;DHT22;12316;50.904;4.200;2024-01-15T06:48:21;2.80;99.90
24158;DHT22;12316;50.904;4.200;2024-01-15T06:50:46;2.90;99.90
24158;DHT22;12316;50.904;4.200;2024-01-15T06:53:12;2.70;99.90
24158;DHT22;12316;50.904;4.200;2024-01-15T06:55:38;2.70;99.90
24158;DHT22;12316;50.904;4.200;2024-01-15T06:58:04;2.80;99.90
24158;DHT22;12316;50.904;4.200;2024-01-15T07:00:30;2.70;99.90
24158;DHT22;12316;50.904;4.200;2024-01-15T07:02:56;2.60;99.90
24158;DHT22;12316;50.904;4.200;2024-01-15T07:05:22;2.60;99.90
24158;DHT22;12316;50.904;4.200;2024-01-15T07:07:47;2.60;99.90
24158;DHT22;12316;50.904;4.200;2024-01-15T07:10:13;2.60;99.90
24158;DHT22;12316;50.904;4.200;2024-01-15T07:12:42;2.60;99.90
24158;DHT22;12316;50.904;4.200;2024-01-15T07:15:08;2.60;99.90
24158;DHT22;12316;50.904;4.200;2024-01-15T07:17:34;2.60;99.90
24158;DHT22;12316;50.904;4.200;2024-01-15T07:20:00;2.40;99.90
24158;DHT22;12316;50.904;4.200;2024-01-15T07:22:25;2.20;99.90
24158;DHT22;12316;50.904;4.200;2024-01-15T07:24:51;2.30;99.90
24158;DHT22;12316;50.904;4.200;2024-01-15T07:27:17;2.40;99.90
24158;DHT22;12316;50.904;4.200;2024-01-15T07:29:42;2.30;99.90
24158;DHT22;12316;50.904;4.200;2024-01-15T07:32:08;2.40;99.90
24158;DHT22;12316;50.904;4.200;2024-01-15T07:34:34;2.30;99.90
24158;DHT22;12316;50.904;4.200;2024-01-15T07:36:59;2.40;99.90
24158;DHT22;12316;50.904;4.200;2024-01-15T07:39:25;2.30;99.90
24158;DHT22;12316;50.904;4.200;2024-01-15T07:41:54;2.40;99.90
24158;DHT22;12316;50.904;4.200;2024-01-15T07:44:19;2.30;99.90
24158;DHT22;12316;50.904;4.200;2024-01-15T07:46:46;2.20;99.90
24158;DHT22;12316;50.904;4.200;2024-01-15T07:49:12;2.30;99.90
24158;DHT22;12316;50.904;4.200;2024-01-15T07:51:38;2.20;99.90
24158;DHT22;12316;50.904;4.200;2024-01-15T07:54:05;2.30;99.90
24158;DHT22;12316;50.904;4.200;2024-01-15T07:56:31;2.40;99.90
24158;DHT22;12316;50.904;4.200;2024-01-15T07:58:57;2.40;99.90
24158;DHT22;12316;50.904;4.200;2024-01-15T08:01:22;2.60;99.90
24158;DHT22;12316;50.904;4.200;2024-01-15T08:03:48;2.60;99.90
24158;DHT22;12316;50.904;4.200;2024-01-15T08:06:14;2.80;99.90
24158;DHT22;12316;50.904;4.200;2024-01-15T08:08:39;2.60;99.90
24158;DHT22;12316;50.904;4.200;2024-01-15T08:11:05;2.50;99.90
24158;DHT22;12316;50.904;4.200;2024-01-15T08:13:31;2.50;99.90
24158;DHT22;12316;50.904;4.200;2024-01-15T08:15:56;2.50;99.90
24158;DHT22;12316;50.904;4.200;2024-01-15T08:18:22;2.70;99.90
24158;DHT22;12316;50.904;4.200;2024-01-15T08:20:48;2.60;99.90
24158;DHT22;12316;50.904;4.200;2024-01-15T08:23:13;2.50;99.90
24158;DHT22;12316;50.904;4.200;2024-01-15T08:25:39;2.60;99.90
24158;DHT22;12316;50.904;4.200;2024-01-15T08:28:05;2.50;99.90
24158;DHT22;12316;50.904;4.200;2024-01-15T08:30:30;2.50;99.90
24158;DHT22;12316;50.904;4.200;2024-01-15T08:32:56;2.50;99.90
24158;DHT22;12316;50.904;4.200;2024-01-15T08:35:22;2.50;99.90
24158;DHT22;12316;50.904;4.200;2024-01-15T08:37:51;2.60;99.90
24158;DHT22;12316;50.904;4.200;2024-01-15T08:40:17;2.60;99.90
24158;DHT22;12316;50.904;4.200;2024-01-15T08:42:43;2.60;99.90
24158;DHT22;12316;50.904;4.200;2024-01-15T08:45:09;2.60;99.90
24158;DHT22;12316;50.904;4.200;2024-01-15T08:47:35;2.70;99.90
24158;DHT22;12316;50.904;4.200;2024-01-15T08:50:01;2.70;99.90
24158;DHT22;12316;50.904;4.200;2024-01-15T08:52:28;2.70;99.90
24158;DHT22;12316;50.904;4.200;2024-01-15T08:54:56;2.80;99.90
24158;DHT22;12316;50.904;4.200;2024-01-15T08:57:21;2.80;99.90
24158;DHT22;12316;50.904;4.200;2024-01-15T08:59:47;2.70;99.90
24158;DHT22;12316;50.904;4.200;2024-01-15T09:02:13;2.80;99.90
24158;DHT22;12316;50.904;4.200;2024-01-15T09:04:39;2.70;99.90
24158;DHT22;12316;50.904;4.200;2024-01-15T09:07:04;2.70;99.90
24158;DHT22;12316;50.904;4.200;2024-01-15T09:09:30;2.70;99.90
24158;DHT22;12316;50.904;4.200;2024-01-15T09:11:55;2.80;99.90
24158;DHT22;12316;50.904;4.200;2024-01-15T09:14:22;2.70;99.90
24158;DHT22;12316;50.904;4.200;2024-01-15T09:16:50;2.80;99.90
24158;DHT22;12316;50.904;4.200;2024-01-15T09:19:16;2.90;99.90
24158;DHT22;12316;50.904;4.200;2024-01-15T09:21:41;3.00;99.90
24158;DHT22;12316;50.904;4.200;2024-01-15T09:24:07;3.00;99.90
24158;DHT22;12316;50.904;4.200;2024-01-15T09:26:32;3.00;99.90
24158;DHT22;12316;50.904;4.200;2024-01-15T09:28:58;3.10;99.90
24158;DHT22;12316;50.904;4.200;2024-01-15T09:31:24;3.20;99.90
24158;DHT22;12316;50.904;4.200;2024-01-15T09:33:50;3.30;99.90
24158;DHT22;12316;50.904;4.200;2024-01-15T09:36:22;3.40;99.90
24158;DHT22;12316;50.904;4.200;2024-01-15T09:38:48;3.30;99.90
24158;DHT22;12316;50.904;4.200;2024-01-15T09:41:14;3.30;99.90
24158;DHT22;12316;50.904;4.200;2024-01-15T09:43:40;3.30;99.90
24158;DHT22;12316;50.904;4.200;2024-01-15T09:46:07;3.30;99.90
24158;DHT22;12316;50.904;4.200;2024-01-15T09:48:33;3.40;99.90
24158;DHT22;12316;50.904;4.200;2024-01-15T09:51:02;3.50;99.90
24158;DHT22;12316;50.904;4.200;2024-01-15T09:53:28;3.40;99.90
24158;DHT22;12316;50.904;4.200;2024-01-15T09:55:53;3.50;99.90
24158;DHT22;12316;50.904;4.200;2024-01-15T09:58:19;3.40;99.90
24158;DHT22;12316;50.904;4.200;2024-01-15T10:00:47;3.40;99.90
24158;DHT22;12316;50.904;4.200;2024-01-15T10:03:15;3.30;99.90
24158;DHT22;12316;50.904;4.200;2024-01-15T10:05:41;3.40;99.90
24158;DHT22;12316;50.904;4.200;2024-01-15T10:08:07;3.40;99.90
24158;DHT22;12316;50.904;4.200;2024-01-15T10:10:32;3.60;99.90
24158;DHT22;12316;50.904;4.200;2024-01-15T10:12:59;3.60;99.90
24158;DHT22;12316;50.904;4.200;2024-01-15T10:15:28;3.80;99.90
24158;DHT22;12316;50.904;4.200;2024-01-15T10:17:54;3.80;99.90
24158;DHT22;12316;50.904;4.200;2024-01-15T10:20:20;3.90;99.90
24158;DHT22;12316;50.904;4.200;2024-01-15T10:22:47;4.10;99.90
24158;DHT22;12316;50.904;4.200;2024-01-15T10:25:13;3.90;99.90
24158;DHT22;12316;50.904;4.200;2024-01-15T10:27:43;3.90;99.90
24158;DHT22;12316;50.904;4.200;2024-01-15T10:30:10;3.90;99.90
24158;DHT22;12316;50.904;4.200;2024-01-15T10:32:36;4.00;99.90
24158;DHT22;12316;50.904;4.200;2024-01-15T10:35:02;3.80;99.90
24158;DHT22;12316;50.904;4.200;2024-01-15T10:37:33;3.80;99.90
24158;DHT22;12316;50.904;4.200;2024-01-15T10:40:02;3.90;99.90
24158;DHT22;12316;50.904;4.200;2024-01-15T10:42:30;4.00;99.90
24158;DHT22;12316;50.904;4.200;2024-01-15T10:44:56;4.30;99.90
24158;DHT22;12316;50.904;4.200;2024-01-15T10:47:22;4.30;99.90
24158;DHT22;12316;50.904;4.200;2024-01-15T10:49:48;4.40;99.90
24158;DHT22;12316;50.904;4.200;2024-01-15T10:52:15;4.40;99.90
24158;DHT22;12316;50.904;4.200;2024-01-15T10:54:41;4.50;99.90
24158;DHT22;12316;50.904;4.200;2024-01-15T10:57:08;4.70;99.90
24158;DHT22;12316;50.904;4.200;2024-01-15T10:59:36;5.00;99.90
24158;DHT22;12316;50.904;4.200;2024-01-15T11:02:02;4.70;99.90
24158;DHT22;12316;50.904;4.200;2024-01-15T11:04:28;4.70;99.90
24158;DHT22;12316;50.904;4.200;2024-01-15T11:06:55;4.70;99.90
24158;DHT22;12316;50.904;4.200;2024-01-15T11:09:21;4.80;99.90
24158;DHT22;12316;50.904;4.200;2024-01-15T11:11:47;4.90;99.90
24158;DHT22;12316;50.904;4.200;2024-01-15T11:14:34;4.70;99.90
24158;DHT22;12316;50.904;4.200;2024-01-15T11:16:59;4.50;99.90
24158;DHT22;12316;50.904;4.200;2024-01-15T11:19:25;4.50;99.90
24158;DHT22;12316;50.904;4.200;2024-01-15T11:21:51;4.50;99.90
24158;DHT22;12316;50.904;4.200;2024-01-15T11:24:41;4.40;99.90
24158;DHT22;12316;50.904;4.200;2024-01-15T11:27:08;4.50;99.90
24158;DHT22;12316;50.904;4.200;2024-01-15T11:29:35;4.60;99.90
24158;DHT22;12316;50.904;4.200;2024-01-15T11:32:07;4.60;99.90
24158;DHT22;12316;50.904;4.200;2024-01-15T11:37:18;4.60;99.90
24158;DHT22;12316;50.904;4.200;2024-01-15T11:39:44;4.40;99.90
24158;DHT22;12316;50.904;4.200;2024-01-15T11:42:11;4.30;99.90
24158;DHT22;12316;50.904;4.200;2024-01-15T11:44:40;4.50;99.90
24158;DHT22;12316;50.904;4.200;2024-01-15T11:47:10;4.50;99.90
24158;DHT22;12316;50.904;4.200;2024-01-15T11:52:25;4.40;99.90
24158;DHT22;12316;50.904;4.200;2024-01-15T11:57:45;4.50;99.90
24158;DHT22;12316;50.904;4.200;2024-01-15T12:00:12;4.50;99.90
24158;DHT22;12316;50.904;4.200;2024-01-15T12:02:40;4.60;99.90
24158;DHT22;12316;50.904;4.200;2024-01-15T12:05:07;4.70;99.90
24158;DHT22;12316;50.904;4.200;2024-01-15T12:07:33;4.80;99.90
24158;DHT22;12316;50.904;4.200;2024-01-15T12:10:00;4.90;99.90
24158;DHT22;12316;50.904;4.200;2024-01-15T12:12:39;4.80;99.90
24158;DHT22;12316;50.904;4.200;2024-01-15T12:15:09;4.80;99.90
24158;DHT22;12316;50.904;4.200;2024-01-15T12:17:35;4.70;99.90
24158;DHT22;12316;50.904;4.200;2024-01-15T12:20:03;4.80;99.90
24158;DHT22;12316;50.904;4.200;2024-01-15T12:22:29;4.70;99.90
24158;DHT22;12316;50.904;4.200;2024-01-15T12:24:54;4.80;99.90
24158;DHT22;12316;50.904;4.200;2024-01-15T12:27:20;5.00;99.90
24158;DHT22;12316;50.904;4.200;2024-01-15T12:29:46;5.00;99.90
24158;DHT22;12316;50.904;4.200;2024-01-15T12:32:12;5.00;99.90
24158;DHT22;12316;50.904;4.200;2024-01-15T12:34:38;5.00;99.90
24158;DHT22;12316;50.904;4.200;2024-01-15T12:37:04;4.80;99.90
24158;DHT22;12316;50.904;4.200;2024-01-15T12:39:29;4.70;99.90
24158;DHT22;12316;50.904;4.200;2024-01-15T12:41:55;4.70;99.90
24158;DHT22;12316;50.904;4.200;2024-01-15T12:44:21;4.70;99.90
24158;DHT22;12316;50.904;4.200;2024-01-15T12:46:47;4.50;99.90
24158;DHT22;12316;50.904;4.200;2024-01-15T12:49:13;4.40;99.90
24158;DHT22;12316;50.904;4.200;2024-01-15T12:51:38;4.40;99.90
24158;DHT22;12316;50.904;4.200;2024-01-15T12:54:04;4.40;99.90
24158;DHT22;12316;50.904;4.200;2024-01-15T12:56:30;4.60;99.90
24158;DHT22;12316;50.904;4.200;2024-01-15T12:58:56;4.50;99.90
24158;DHT22;12316;50.904;4.200;2024-01-15T13:01:22;4.50;99.90
24158;DHT22;12316;50.904;4.200;2024-01-15T13:03:47;4.30;99.90
24158;DHT22;12316;50.904;4.200;2024-01-15T13:06:13;4.10;99.90
24158;DHT22;12316;50.904;4.200;2024-01-15T13:08:38;3.90;99.90
24158;DHT22;12316;50.904;4.200;2024-01-15T13:11:04;4.10;99.90
24158;DHT22;12316;50.904;4.200;2024-01-15T13:13:31;4.00;99.90
24158;DHT22;12316;50.904;4.200;2024-01-15T13:15:59;4.10;99.90
24158;DHT22;12316;50.904;4.200;2024-01-15T13:18:25;4.20;99.90
24158;DHT22;12316;50.904;4.200;2024-01-15T13:20:51;4.50;99.90
24158;DHT22;12316;50.904;4.200;2024-01-15T13:23:16;4.40;99.90
24158;DHT22;12316;50.904;4.200;2024-01-15T13:25:42;4.40;99.90
24158;DHT22;12316;50.904;4.200;2024-01-15T13:28:08;4.40;99.90
24158;DHT22;12316;50.904;4.200;2024-01-15T13:30:34;4.50;99.90
24158;DHT22;12316;50.904;4.200;2024-01-15T13:32:59;4.70;99.90
24158;DHT22;12316;50.904;4.200;2024-01-15T13:35:29;4.70;99.90
24158;DHT22;12316;50.904;4.200;2024-01-15T13:37:55;4.70;99.90
24158;DHT22;12316;50.904;4.200;2024-01-15T13:40:21;4.70;99.90
24158;DHT22;12316;50.904;4.200;2024-01-15T13:42:47;4.90;99.90
24158;DHT22;12316;50.904;4.200;2024-01-15T13:45:14;4.90;99.90
24158;DHT22;12316;50.904;4.200;2024-01-15T13:47:42;4.80;99.90
24158;DHT22;12316;50.904;4.200;2024-01-15T13:50:11;4.40;99.90
24158;DHT22;12316;50.904;4.200;2024-01-15T13:52:36;4.00;99.90
24158;DHT22;12316;50.904;4.200;2024-01-15T13:55:03;3.80;99.90
24158;DHT22;12316;50.904;4.200;2024-01-15T13:57:28;3.50;99.90
24158;DHT22;12316;50.904;4.200;2024-01-15T13:59:54;3.30;99.90
24158;DHT22;12316;50.904;4.200;2024-01-15T14:02:20;3.30;99.90
24158;DHT22;12316;50.904;4.200;2024-01-15T14:04:47;3.30;99.90
24158;DHT22;12316;50.904;4.200;2024-01-15T14:07:12;3.30;99.90
24158;DHT22;12316;50.904;4.200;2024-01-15T14:09:38;3.60;99.90
24158;DHT22;12316;50.904;4.200;2024-01-15T14:12:04;3.60;99.90
24158;DHT22;12316;50.904;4.200;2024-01-15T14:14:30;3.70;99.90
24158;DHT22;12316;50.904;4.200;2024-01-15T14:16:55;3.80;99.90
24158;DHT22;12316;50.904;4.200;2024-01-15T14:19:21;3.90;99.90
24158;DHT22;12316;50.904;4.200;2024-01-15T14:21:47;3.80;99.90
24158;DHT22;12316;50.904;4.200;2024-01-15T14:24:13;3.60;99.90
24158;DHT22;12316;50.904;4.200;2024-01-15T14:26:38;3.40;99.90
24158;DHT22;12316;50.904;4.200;2024-01-15T14:29:04;3.00;99.90
24158;DHT22;12316;50.904;4.200;2024-01-15T14:31:31;2.80;99.90
24158;DHT22;12316;50.904;4.200;2024-01-15T14:33:58;2.70;99.90
24158;DHT22;12316;50.904;4.200;2024-01-15T14:36:24;2.60;99.90
24158;DHT22;12316;50.904;4.200;2024-01-15T14:38:50;2.70;99.90
24158;DHT22;12316;50.904;4.200;2024-01-15T14:41:16;2.60;99.90
24158;DHT22;12316;50.904;4.200;2024-01-15T14:43:44;2.70;99.90
24158;DHT22;12316;50.904;4.200;2024-01-15T14:46:10;2.50;99.90
24158;DHT22;12316;50.904;4.200;2024-01-15T14:48:36;2.30;99.90
24158;DHT22;12316;50.904;4.200;2024-01-15T14:51:02;2.50;99.90
24158;DHT22;12316;50.904;4.200;2024-01-15T14:53:28;2.40;99.90
24158;DHT22;12316;50.904;4.200;2024-01-15T14:55:54;2.30;99.90
24158;DHT22;12316;50.904;4.200;2024-01-15T14:58:19;2.20;99.90
24158;DHT22;12316;50.904;4.200;2024-01-15T15:00:45;2.20;99.90
24158;DHT22;12316;50.904;4.200;2024-01-15T15:03:11;2.10;99.90
24158;DHT22;12316;50.904;4.200;2024-01-15T15:05:39;2.10;99.90
24158;DHT22;12316;50.904;4.200;2024-01-15T15:08:05;2.10;99.90
24158;DHT22;12316;50.904;4.200;2024-01-15T15:10:34;2.00;99.90
24158;DHT22;12316;50.904;4.200;2024-01-15T15:13:00;1.90;99.90
24158;DHT22;12316;50.904;4.200;2024-01-15T15:15:26;2.00;99.90
24158;DHT22;12316;50.904;4.200;2024-01-15T15:17:52;2.10;99.90
24158;DHT22;12316;50.904;4.200;2024-01-15T15:20:17;2.10;99.90
24158;DHT22;12316;50.904;4.200;2024-01-15T15:22:44;2.30;99.90
24158;DHT22;12316;50.904;4.200;2024-01-15T15:25:10;2.30;99.90
24158;DHT22;12316;50.904;4.200;2024-01-15T15:27:37;2.40;99.90
24158;DHT22;12316;50.904;4.200;2024-01-15T15:30:04;2.50;99.90
24158;DHT22;12316;50.904;4.200;2024-01-15T15:32:29;2.70;99.90
24158;DHT22;12316;50.904;4.200;2024-01-15T15:34:55;2.70;99.90
24158;DHT22;12316;50.904;4.200;2024-01-15T15:37:21;2.50;99.90
24158;DHT22;12316;50.904;4.200;2024-01-15T15:39:46;2.50;99.90
24158;DHT22;12316;50.904;4.200;2024-01-15T15:42:12;2.40;99.90
24158;DHT22;12316;50.904;4.200;2024-01-15T15:44:39;2.40;99.90
24158;DHT22;12316;50.904;4.200;2024-01-15T15:47:10;2.40;99.90